Time;durP1;ratioP1;P1;durP2;ratioP2;P2;SDS_P1;SDS_P2;PMS_P1;PMS_P2;Temp;Humidity;BMP_temperature;BMP_pressure;BME280_temperature;BME280_humidity;BME280_pressure;Samples;Min_cycle;Max_cycle;Signal;HPM_P1;HPM_P2
2024/04/06 00:02:14;;;;;;;8.70;4.10;;;;;;;15.77;56.86;98824.19;238998;180;155076;-57
2024/04/06 00:07:17;;;;;;;11.40;4.40;;;;;;;15.84;56.70;98818.18;239018;180;137631;-56
2024/04/06 00:12:20;;;;;;;9.50;3.40;;;;;;;15.92;56.64;98811.44;239033;180;139654;-56
2024/04/06 00:17:23;;;;;;;10.20;3.70;;;;;;;15.97;56.57;98812.10;239018;180;154018;-55
2024/04/06 00:22:26;;;;;;;10.10;3.60;;;;;;;16.02;56.48;98805.95;239033;180;140714;-57
2024/04/06 00:27:31;;;;;;;7.00;3.60;;;;;;;16.07;56.46;98809.70;239147;177;138132;-57
2024/04/06 00:32:33;;;;;;;9.10;3.70;;;;;;;16.13;56.45;98804.27;239099;180;153176;-56
2024/04/06 00:37:36;;;;;;;9.90;3.30;;;;;;;16.19;56.38;98797.60;239061;180;138448;-57
2024/04/06 00:42:39;;;;;;;7.30;3.10;;;;;;;16.24;56.36;98797.50;239085;180;137614;-57
2024/04/06 00:47:42;;;;;;;9.20;3.00;;;;;;;16.29;56.26;98795.29;239102;180;153176;-57
2024/04/06 00:52:46;;;;;;;8.50;3.10;;;;;;;16.32;56.33;98795.56;239057;180;136915;-55
2024/04/06 00:57:49;;;;;;;7.20;3.40;;;;;;;16.36;56.26;98788.44;239141;180;138860;-57
2024/04/06 01:02:52;;;;;;;9.30;3.80;;;;;;;16.35;56.24;98792.42;239076;179;153633;-55
2024/04/06 01:07:55;;;;;;;10.00;4.70;;;;;;;16.34;56.14;98787.86;239085;180;138580;-57
2024/04/06 01:12:59;;;;;;;7.80;4.10;;;;;;;16.29;56.21;98786.64;239117;180;137888;-55
2024/04/06 01:18:03;;;;;;;10.50;4.60;;;;;;;16.24;56.05;98784.96;239055;180;153155;-55
2024/04/06 01:23:06;;;;;;;10.10;4.30;;;;;;;16.22;56.15;98791.92;239138;180;138389;-56
2024/04/06 01:28:08;;;;;;;9.60;4.70;;;;;;;16.23;56.02;98785.75;239159;178;137947;-57
2024/04/06 01:33:11;;;;;;;8.30;4.00;;;;;;;16.24;56.23;98785.16;239129;180;153339;-56
2024/04/06 01:38:14;;;;;;;10.40;4.20;;;;;;;16.20;56.98;98797.20;239104;180;137945;-56
2024/04/06 01:43:17;;;;;;;6.60;4.10;;;;;;;16.15;56.88;98795.64;239143;180;138186;-57
2024/04/06 01:48:20;;;;;;;8.00;4.00;;;;;;;16.15;57.13;98798.70;239110;180;153612;-57
2024/04/06 01:53:23;;;;;;;10.20;4.60;;;;;;;16.08;56.99;98798.05;239085;180;138039;-56
2024/04/06 01:58:26;;;;;;;11.50;4.50;;;;;;;16.02;57.37;98804.45;239166;180;139216;-58
2024/04/06 02:03:30;;;;;;;8.80;4.20;;;;;;;16.02;57.18;98807.84;239127;180;153709;-57
2024/04/06 02:08:33;;;;;;;10.60;4.80;;;;;;;16.07;57.09;98807.82;239102;180;137240;-57
2024/04/06 02:13:36;;;;;;;10.60;4.90;;;;;;;16.09;57.03;98812.83;239101;180;137776;-56
2024/04/06 02:18:41;;;;;;;10.00;4.90;;;;;;;16.09;56.97;98832.14;239079;180;153063;-57
2024/04/06 02:23:44;;;;;;;8.30;4.20;;;;;;;16.07;56.88;98838.36;239078;180;137049;-55
2024/04/06 02:28:47;;;;;;;9.00;4.20;;;;;;;16.06;56.87;98841.14;239130;180;137076;-56
2024/04/06 02:33:50;;;;;;;6.70;4.00;;;;;;;16.05;56.96;98853.02;239106;180;154430;-56
2024/04/06 02:38:53;;;;;;;7.10;4.10;;;;;;;16.08;56.99;98855.66;239083;180;137787;-53
2024/04/06 02:43:56;;;;;;;8.90;4.30;;;;;;;16.11;57.20;98856.32;239143;180;137711;-56
2024/04/06 02:48:59;;;;;;;10.80;4.30;;;;;;;16.08;57.26;98858.86;239171;180;153017;-56
2024/04/06 02:54:02;;;;;;;10.60;4.70;;;;;;;16.10;57.37;98868.01;239040;180;137685;-56
2024/04/06 02:59:05;;;;;;;9.70;4.60;;;;;;;16.17;57.28;98870.30;239129;180;138318;-57
2024/04/06 03:04:08;;;;;;;11.00;4.40;;;;;;;16.19;57.36;98876.37;239083;180;153630;-56
2024/04/06 03:09:11;;;;;;;9.70;4.70;;;;;;;16.19;57.49;98887.62;238835;180;138652;-57
2024/04/06 03:14:14;;;;;;;7.60;3.80;;;;;;;16.17;57.50;98891.06;239163;180;137448;-55
2024/04/06 03:19:17;;;;;;;8.30;4.30;;;;;;;16.19;57.55;98898.92;239104;180;152967;-57
2024/04/06 03:24:20;;;;;;;10.30;4.50;;;;;;;16.21;57.55;98908.95;239083;180;137839;-57
2024/04/06 03:29:23;;;;;;;10.50;4.60;;;;;;;16.23;57.62;98915.39;239128;180;138099;-57
2024/04/06 03:34:26;;;;;;;8.80;3.90;;;;;;;16.23;57.82;98927.20;239105;177;153136;-56
2024/04/06 03:39:31;;;;;;;5.60;2.90;;;;;;;16.23;58.19;98928.83;239102;180;137645;-56
2024/04/06 03:44:34;;;;;;;54.60;41.00;;;;;;;16.25;58.56;98929.33;239078;180;138399;-56
2024/04/06 03:49:36;;;;;;;18.00;11.70;;;;;;;16.28;58.77;98928.58;239116;180;154394;-57
2024/04/06 03:54:39;;;;;;;18.40;12.60;;;;;;;16.28;58.82;98933.40;239096;180;138449;-57
2024/04/06 03:59:43;;;;;;;9.30;3.40;;;;;;;16.29;58.91;98938.13;239040;180;137818;-57
2024/04/06 04:04:46;;;;;;;7.40;3.40;;;;;;;16.29;58.88;98949.03;239061;172;154363;-54
2024/04/06 04:09:49;;;;;;;91.40;68.80;;;;;;;16.31;58.98;98952.31;239091;180;138182;-55
2024/04/06 04:14:52;;;;;;;7.50;4.00;;;;;;;16.36;59.06;98953.84;239147;177;138897;-57
2024/04/06 04:19:55;;;;;;;4.40;2.40;;;;;;;16.41;58.92;98957.16;239088;180;153351;-57
2024/04/06 04:24:58;;;;;;;5.10;2.10;;;;;;;16.46;58.88;98964.90;239108;180;139581;-54
2024/04/06 04:30:01;;;;;;;7.00;2.00;;;;;;;16.53;58.73;98967.76;239036;177;137052;-53
2024/04/06 04:35:04;;;;;;;4.50;1.60;;;;;;;16.59;58.70;98969.90;239084;180;153377;-55
2024/04/06 04:40:09;;;;;;;4.30;1.70;;;;;;;16.65;58.61;98976.35;239033;180;137842;-55
2024/04/06 04:45:14;;;;;;;76.10;65.40;;;;;;;16.72;58.40;98983.63;239062;180;138157;-57
2024/04/06 04:50:16;;;;;;;7.00;2.50;;;;;;;16.81;58.60;98993.59;239046;180;153514;-59
2024/04/06 04:55:19;;;;;;;7.10;1.90;;;;;;;16.88;58.09;99002.53;239066;178;138303;-57
2024/04/06 05:00:26;;;;;;;4.30;1.90;;;;;;;16.90;58.06;99015.17;239133;180;137838;-58
2024/04/06 05:05:29;;;;;;;3.20;1.70;;;;;;;16.95;57.94;99022.30;239089;180;153153;-58
2024/04/06 05:10:32;;;;;;;5.30;1.70;;;;;;;16.98;57.82;99032.04;239137;180;138268;-59
2024/04/06 05:15:35;;;;;;;5.00;1.70;;;;;;;17.00;57.77;99039.08;239143;177;137851;-58
2024/04/06 05:20:38;;;;;;;7.00;2.20;;;;;;;17.04;57.76;99048.40;239070;180;153131;-59
2024/04/06 05:25:40;;;;;;;5.30;1.90;;;;;;;17.03;57.82;99050.95;239088;180;137704;-58
2024/04/06 05:30:47;;;;;;;5.10;2.10;;;;;;;17.05;57.80;99059.80;239059;177;137676;-58
2024/04/06 05:35:51;;;;;;;3.80;2.00;;;;;;;17.05;57.83;99068.73;239134;180;152904;-59
2024/04/06 05:40:54;;;;;;;7.40;2.20;;;;;;;17.10;57.68;99074.58;239074;180;138544;-57
2024/04/06 05:46:04;;;;;;;7.10;2.60;;;;;;;17.14;57.59;99078.91;239120;180;138306;-59
2024/04/06 05:51:06;;;;;;;5.20;2.10;;;;;;;17.16;57.47;99084.73;239093;180;152908;-59
2024/04/06 05:56:09;;;;;;;10.50;2.30;;;;;;;17.15;57.60;99085.77;239121;180;139499;-58
2024/04/06 06:01:13;;;;;;;7.50;2.20;;;;;;;17.18;57.55;99093.41;239117;180;137963;-58
2024/04/06 06:06:16;;;;;;;7.80;2.30;;;;;;;17.21;57.57;99099.55;239013;177;153201;-58
2024/04/06 06:11:18;;;;;;;6.70;3.20;;;;;;;17.19;57.46;99102.59;239075;180;139424;-59
2024/04/06 06:16:21;;;;;;;8.30;2.70;;;;;;;17.21;57.61;99109.05;239050;180;137700;-57
2024/04/06 06:21:24;;;;;;;7.20;2.50;;;;;;;17.23;57.53;99116.10;239141;180;153142;-59
2024/04/06 06:26:27;;;;;;;8.40;2.50;;;;;;;17.24;57.49;99117.25;239063;180;138766;-59
2024/04/06 06:31:30;;;;;;;6.80;2.60;;;;;;;17.29;57.43;99121.29;239084;177;137983;-59
2024/04/06 06:36:36;;;;;;;5.90;2.30;;;;;;;17.35;57.75;99130.31;239095;180;153393;-59
2024/04/06 06:41:42;;;;;;;6.60;2.30;;;;;;;17.35;57.36;99133.15;239017;180;138138;-59
2024/04/06 06:46:45;;;;;;;9.90;2.70;;;;;;;17.42;57.22;99134.47;239124;180;137697;-57
2024/04/06 06:51:48;;;;;;;6.60;2.30;;;;;;;17.49;57.17;99134.19;239073;180;153224;-57
2024/04/06 06:56:51;;;;;;;7.70;3.00;;;;;;;17.56;57.00;99135.42;239021;180;138525;-59
2024/04/06 07:01:54;;;;;;;8.30;2.70;;;;;;;17.62;56.77;99140.23;239167;180;138746;-58
2024/04/06 07:06:57;;;;;;;8.30;3.00;;;;;;;17.68;56.58;99138.12;239091;180;153724;-57
2024/04/06 07:12:03;;;;;;;8.10;2.30;;;;;;;17.71;56.17;99142.58;238931;179;137965;-58
2024/04/06 07:17:07;;;;;;;8.20;2.40;;;;;;;17.76;55.96;99151.23;239041;180;137612;-59
2024/04/06 07:22:10;;;;;;;7.00;1.90;;;;;;;17.78;55.32;99152.29;239030;180;153428;-58
2024/04/06 07:27:13;;;;;;;5.20;1.70;;;;;;;17.76;55.25;99155.16;239070;180;137694;-59
2024/04/06 07:32:15;;;;;;;8.00;2.10;;;;;;;17.74;55.62;99156.52;239154;176;137786;-58
2024/04/06 07:37:18;;;;;;;5.00;2.20;;;;;;;17.81;55.56;99164.39;239099;180;155898;-58
2024/04/06 07:42:21;;;;;;;4.90;2.30;;;;;;;17.87;55.48;99169.73;239083;178;138013;-58
2024/04/06 07:47:25;;;;;;;4.20;1.70;;;;;;;17.89;55.24;99160.09;239130;180;137121;-58
2024/04/06 07:52:28;;;;;;;5.80;1.90;;;;;;;17.98;54.88;99152.61;239096;179;153186;-58
2024/04/06 07:57:32;;;;;;;5.10;1.70;;;;;;;18.05;54.28;99154.98;239043;180;136975;-58
2024/04/06 08:02:35;;;;;;;5.40;1.90;;;;;;;18.08;54.16;99158.74;239150;180;139354;-59
2024/04/06 08:07:38;;;;;;;3.20;1.60;;;;;;;18.18;54.00;99158.13;239079;180;153824;-57
2024/04/06 08:12:44;;;;;;;4.90;2.10;;;;;;;18.21;52.89;99154.67;239088;180;140098;-59
2024/04/06 08:17:53;;;;;;;8.50;2.40;;;;;;;18.31;52.96;99150.52;239075;177;138026;-57
2024/04/06 08:22:56;;;;;;;5.50;1.70;;;;;;;18.49;52.16;99145.80;238993;180;154386;-59
2024/04/06 08:27:59;;;;;;;5.60;2.30;;;;;;;18.63;50.99;99142.30;238989;180;140134;-58
2024/04/06 08:33:03;;;;;;;5.80;2.10;;;;;;;18.76;50.29;99144.52;239105;180;137756;-58
2024/04/06 08:38:08;;;;;;;;;;;;;;;18.88;49.80;99146.19;239002;180;153118;-58
2024/04/06 08:43:12;;;;;;;5.40;2.40;;;;;;;18.98;49.66;99149.46;239057;180;137122;-57
2024/04/06 08:48:16;;;;;;;3.80;1.80;;;;;;;19.10;49.63;99149.95;239156;177;137814;-58
2024/04/06 08:53:19;;;;;;;8.60;2.40;;;;;;;19.13;49.11;99147.98;239058;180;153143;-58
2024/04/06 08:58:22;;;;;;;7.90;2.20;;;;;;;19.22;48.99;99153.66;239019;180;142197;-57
2024/04/06 09:03:25;;;;;;;6.40;2.40;;;;;;;19.26;48.48;99154.33;239071;180;137772;-57
2024/04/06 09:08:28;;;;;;;15.00;9.80;;;;;;;19.35;48.45;99149.89;239023;180;153143;-59
2024/04/06 09:13:32;;;;;;;8.10;4.30;;;;;;;19.48;49.88;99145.67;239016;180;137042;-57
2024/04/06 09:18:36;;;;;;;6.00;2.80;;;;;;;19.65;49.26;99148.61;239146;180;138302;-58
2024/04/06 09:23:39;;;;;;;8.30;2.40;;;;;;;19.70;48.80;99145.06;239162;169;153105;-59
2024/04/06 09:28:43;;;;;;;7.30;2.60;;;;;;;19.78;48.48;99145.52;239013;180;137407;-59
2024/04/06 09:33:50;;;;;;;6.70;2.20;;;;;;;19.82;48.15;99148.01;239141;180;138101;-58
2024/04/06 09:38:54;;;;;;;5.40;2.10;;;;;;;19.88;47.97;99154.82;239102;180;153114;-58
2024/04/06 09:43:58;;;;;;;149.70;117.20;;;;;;;19.95;48.02;99163.81;239032;176;138047;-59
2024/04/06 09:49:02;;;;;;;7.40;3.50;;;;;;;19.95;47.19;99158.73;239092;180;139055;-58
2024/04/06 09:54:05;;;;;;;8.80;2.00;;;;;;;19.96;47.13;99154.04;239101;180;153750;-58
2024/04/06 09:59:19;;;;;;;4.20;1.90;;;;;;;20.00;46.75;99160.60;239109;180;136970;-60
2024/04/06 10:04:33;;;;;;;4.10;1.40;;;;;;;20.03;47.09;99152.27;239078;180;138049;-60
2024/04/06 10:09:36;;;;;;;4.70;1.80;;;;;;;20.16;46.82;99152.79;239032;180;153606;-59
2024/04/06 10:14:45;;;;;;;5.40;1.60;;;;;;;20.31;46.22;99151.25;239130;180;141732;-59
2024/04/06 10:19:48;;;;;;;4.70;1.60;;;;;;;20.46;45.38;99151.69;238916;180;138169;-58
2024/04/06 10:25:02;;;;;;;49.60;35.50;;;;;;;20.49;45.44;99153.55;239024;176;153786;-60
2024/04/06 10:30:06;;;;;;;7.20;3.00;;;;;;;20.51;45.40;99155.86;239037;180;138770;-58
2024/04/06 10:35:09;;;;;;;4.40;2.10;;;;;;;20.55;45.48;99151.31;239021;180;137357;-57
2024/04/06 10:40:13;;;;;;;2.60;1.60;;;;;;;20.59;45.44;99151.29;238983;180;153127;-59
2024/04/06 10:45:16;;;;;;;5.20;2.00;;;;;;;20.63;45.65;99139.97;238994;177;138532;-56
2024/04/06 10:50:19;;;;;;;2.70;1.70;;;;;;;20.78;45.11;99141.71;238943;180;138619;-57
2024/04/06 10:55:23;;;;;;;3.80;1.60;;;;;;;20.87;45.11;99142.15;239026;180;153044;-59
2024/04/06 11:00:26;;;;;;;5.40;2.00;;;;;;;21.03;44.73;99137.08;238980;179;139175;-58
2024/04/06 11:05:30;;;;;;;5.70;3.60;;;;;;;21.12;44.40;99138.62;238980;180;137748;-57
2024/04/06 11:10:33;;;;;;;4.70;2.10;;;;;;;21.16;44.45;99138.40;239050;180;153676;-54
2024/04/06 11:15:36;;;;;;;4.00;1.90;;;;;;;21.34;44.34;99127.63;238972;180;137257;-56
2024/04/06 11:20:39;;;;;;;4.40;1.70;;;;;;;21.50;43.94;99124.20;238912;180;137160;-57
2024/04/06 11:25:43;;;;;;;3.70;1.60;;;;;;;21.66;43.79;99120.87;238981;177;153793;-56
2024/04/06 11:30:46;;;;;;;4.60;1.90;;;;;;;21.78;43.90;99122.66;238805;180;138611;-59
2024/04/06 11:35:50;;;;;;;5.70;1.80;;;;;;;21.73;42.88;99124.61;239022;180;139835;-59
2024/04/06 11:40:53;;;;;;;2.80;1.70;;;;;;;21.59;42.82;99122.91;239042;180;153458;-56
2024/04/06 11:45:57;;;;;;;3.30;1.40;;;;;;;21.59;42.62;99119.21;238997;180;138635;-56
2024/04/06 11:51:00;;;;;;;4.10;1.40;;;;;;;21.61;42.23;99111.75;238551;180;138676;-56
2024/04/06 11:56:04;;;;;;;4.20;1.60;;;;;;;21.77;42.31;99104.75;238992;177;154165;-55
2024/04/06 12:01:07;;;;;;;2.90;1.20;;;;;;;21.90;42.08;99097.64;239023;173;137823;-54
2024/04/06 12:06:12;;;;;;;5.60;1.80;;;;;;;21.93;41.64;99103.09;238988;180;137587;-55
2024/04/06 12:11:15;;;;;;;3.30;1.50;;;;;;;22.04;41.54;99100.33;239009;180;154759;-54
2024/04/06 12:16:18;;;;;;;4.30;1.50;;;;;;;22.08;40.90;99099.16;239037;179;139930;-54
2024/04/06 12:21:24;;;;;;;4.40;1.80;;;;;;;22.11;41.18;99102.42;239057;180;137026;-55
2024/04/06 12:26:27;;;;;;;4.30;1.70;;;;;;;22.23;41.38;99100.63;239054;180;154244;-54
2024/04/06 12:31:31;;;;;;;3.30;1.50;;;;;;;22.38;41.53;99098.98;239012;180;138353;-55
2024/04/06 12:36:33;;;;;;;22.40;15.40;;;;;;;22.46;41.40;99094.70;239049;180;139176;-57
2024/04/06 12:41:36;;;;;;;4.70;2.00;;;;;;;22.33;40.74;99095.55;239110;180;153920;-51
2024/04/06 12:46:39;;;;;;;6.30;1.90;;;;;;;22.36;40.67;99096.33;238987;176;137802;-54
2024/04/06 12:51:42;;;;;;;4.60;1.70;;;;;;;22.39;40.73;99093.08;239099;180;137339;-55
2024/04/06 13:02:09;;;;;;;4.90;1.60;;;;;;;22.31;39.92;99095.58;239112;180;142372;-49
2024/04/06 13:07:14;;;;;;;4.40;1.60;;;;;;;22.30;40.39;99095.98;239131;176;141724;-51
2024/04/06 13:12:21;;;;;;;57.90;47.70;;;;;;;22.27;40.38;99100.23;238925;180;155035;-47
2024/04/06 13:17:24;;;;;;;5.60;2.40;;;;;;;22.21;39.95;99099.55;239145;177;139201;-47
2024/04/06 13:22:27;;;;;;;3.20;1.50;;;;;;;22.14;40.45;99098.33;238930;174;138967;-50
2024/04/06 13:27:30;;;;;;;5.90;1.70;;;;;;;22.08;40.68;99093.74;239181;180;153202;-46
2024/04/06 13:32:34;;;;;;;5.40;1.90;;;;;;;22.08;40.82;99091.77;239132;180;138092;-56
2024/04/06 13:37:37;;;;;;;6.50;1.70;;;;;;;22.08;40.81;99096.13;239055;180;137759;-56
2024/04/06 13:42:42;;;;;;;3.20;1.60;;;;;;;21.99;40.71;99094.91;239045;180;153080;-56
2024/04/06 13:47:45;;;;;;;3.20;1.50;;;;;;;21.87;41.20;99093.42;238953;180;137815;-58
2024/04/06 13:52:48;;;;;;;3.90;1.40;;;;;;;21.81;41.42;99094.91;239109;180;138266;-57
2024/04/06 13:57:54;;;;;;;6.30;2.20;;;;;;;21.75;41.45;99092.66;239148;180;153011;-59
2024/04/06 14:02:57;;;;;;;4.60;2.00;;;;;;;21.72;41.72;99089.52;239077;180;137829;-60
2024/04/06 14:08:00;;;;;;;5.30;2.10;;;;;;;21.71;42.19;99092.46;239076;180;137569;-60
2024/04/06 14:13:04;;;;;;;6.00;2.20;;;;;;;21.68;41.97;99089.25;239049;180;154327;-53
2024/04/06 14:18:07;;;;;;;5.90;2.80;;;;;;;21.63;42.10;99095.20;239083;180;137190;-53
2024/04/06 14:23:10;;;;;;;5.50;2.10;;;;;;;21.57;42.29;99096.19;239115;180;136953;-51
2024/04/06 14:28:14;;;;;;;3.60;1.70;;;;;;;21.55;42.58;99098.92;238976;180;154156;-54
2024/04/06 14:33:18;;;;;;;5.00;1.80;;;;;;;21.51;42.59;99093.54;238937;180;137115;-50
2024/04/06 14:38:23;;;;;;;7.90;5.90;;;;;;;21.45;42.63;99093.07;238827;180;138005;-50
2024/04/06 14:43:27;;;;;;;5.60;1.90;;;;;;;21.43;42.99;99090.25;238934;173;154734;-51
2024/04/06 14:48:35;;;;;;;6.00;2.00;;;;;;;21.38;43.03;99092.77;238926;180;141757;-49
2024/04/06 14:53:39;;;;;;;4.00;1.80;;;;;;;21.40;43.12;99093.86;238989;180;139273;-52
2024/04/06 14:58:45;;;;;;;5.10;1.80;;;;;;;21.34;43.47;99091.92;238910;180;153030;-53
2024/04/06 15:03:52;;;;;;;3.30;1.50;;;;;;;21.31;43.50;99099.34;239054;180;137700;-54
2024/04/06 15:08:56;;;;;;;65.90;57.30;;;;;;;21.22;43.49;99102.38;239030;180;137687;-57
2024/04/06 15:14:00;;;;;;;3.70;2.20;;;;;;;21.18;43.50;99103.02;238852;180;154153;-56
2024/04/06 15:19:05;;;;;;;5.90;1.90;;;;;;;21.15;43.57;99107.82;238769;180;137793;-54
2024/04/06 15:24:10;;;;;;;4.60;1.70;;;;;;;21.12;43.78;99113.02;238896;180;138550;-49
2024/04/06 15:29:14;;;;;;;4.90;2.40;;;;;;;21.12;43.91;99109.97;239004;180;153648;-49
2024/04/06 15:34:24;;;;;;;4.90;2.00;;;;;;;21.11;44.27;99114.69;238792;180;137979;-49
2024/04/06 15:39:28;;;;;;;3.90;1.80;;;;;;;21.10;44.00;99106.70;238597;179;138614;-57
2024/04/06 15:44:37;;;;;;;4.20;1.50;;;;;;;21.07;43.70;99109.94;238923;180;153901;-59
2024/04/06 15:49:41;;;;;;;120.90;97.00;;;;;;;21.03;43.60;99109.81;238868;172;137414;-61
2024/04/06 15:54:44;;;;;;;6.60;3.30;;;;;;;21.09;43.63;99112.96;239007;180;137522;-57
2024/04/06 15:59:48;;;;;;;5.20;2.10;;;;;;;21.13;43.56;99116.84;239077;180;155607;-52
2024/04/06 16:04:51;;;;;;;3.60;2.10;;;;;;;21.16;43.60;99116.55;239062;180;137804;-54
2024/04/06 16:09:55;;;;;;;3.20;1.70;;;;;;;21.21;43.50;99125.95;238859;180;137371;-55
2024/04/06 16:14:58;;;;;;;2.80;1.80;;;;;;;21.20;43.42;99124.27;238943;172;153147;-55
2024/04/06 16:20:01;;;;;;;97.00;81.20;;;;;;;21.24;43.39;99122.96;239032;180;137236;-52
2024/04/06 16:25:07;;;;;;;4.30;2.70;;;;;;;21.41;43.60;99119.92;239114;180;137050;-58
2024/04/06 16:30:10;;;;;;;136.10;99.80;;;;;;;21.50;42.92;99115.92;239131;172;152927;-59
2024/04/06 16:35:15;;;;;;;;;;;;;;;21.45;43.05;99124.84;239061;180;137425;-57
2024/04/06 16:40:19;;;;;;;6.00;2.50;;;;;;;21.38;43.08;99127.77;239191;177;137951;-56
2024/04/06 16:45:22;;;;;;;7.60;2.20;;;;;;;21.33;43.14;99133.38;239121;180;153131;-55
2024/04/06 16:50:25;;;;;;;5.40;2.00;;;;;;;21.27;43.22;99143.17;239038;180;137844;-57
2024/04/06 16:55:29;;;;;;;35.90;29.40;;;;;;;21.22;43.41;99144.40;239037;180;137438;-64
2024/04/06 17:00:32;;;;;;;128.70;104.10;;;;;;;21.17;43.52;99151.27;238985;177;153889;-63
2024/04/06 17:05:35;;;;;;;6.80;3.70;;;;;;;21.08;43.91;99156.18;239131;180;139086;-63
2024/04/06 17:10:38;;;;;;;32.10;27.20;;;;;;;21.01;44.03;99152.22;239057;180;137557;-63
2024/04/06 17:15:42;;;;;;;4.80;1.90;;;;;;;20.95;44.03;99163.14;239047;180;153636;-62
2024/04/06 17:20:45;;;;;;;3.70;1.60;;;;;;;20.87;44.36;99162.86;239002;180;138023;-60
2024/04/06 17:25:48;;;;;;;3.50;2.00;;;;;;;20.80;44.30;99164.95;238645;180;138600;-59
2024/04/06 17:30:51;;;;;;;4.80;2.00;;;;;;;20.70;44.63;99164.39;239072;180;154541;-60
2024/04/06 17:35:54;;;;;;;4.60;2.00;;;;;;;20.62;44.91;99173.33;239036;180;141562;-60
2024/04/06 17:40:57;;;;;;;7.00;2.70;;;;;;;20.55;45.13;99179.59;239088;180;137716;-60
2024/04/06 17:46:00;;;;;;;7.70;2.60;;;;;;;20.50;45.45;99181.23;239058;176;153639;-60
2024/04/06 17:51:03;;;;;;;4.40;2.80;;;;;;;20.41;45.56;99183.23;239129;177;138205;-59
2024/04/06 17:56:07;;;;;;;9.20;3.40;;;;;;;20.33;45.64;99193.87;239084;180;138365;-60
2024/04/06 18:01:10;;;;;;;7.80;3.80;;;;;;;20.26;45.82;99191.34;239099;180;153038;-60
2024/04/06 18:06:13;;;;;;;11.50;3.80;;;;;;;20.20;46.03;99197.02;239076;180;138274;-60
2024/04/06 18:11:17;;;;;;;8.10;4.30;;;;;;;20.15;46.12;99202.23;239089;180;138154;-60
2024/04/06 18:16:22;;;;;;;119.20;94.70;;;;;;;20.07;46.88;99206.78;239106;180;153035;-60
2024/04/06 18:21:25;;;;;;;10.20;5.20;;;;;;;19.84;47.95;99211.53;238986;180;138489;-61
2024/04/06 18:26:28;;;;;;;10.40;4.10;;;;;;;19.61;48.94;99215.02;239107;180;137038;-61
2024/04/06 18:31:31;;;;;;;11.30;4.30;;;;;;;19.38;49.51;99217.43;239125;180;154957;-61
2024/04/06 18:36:35;;;;;;;12.80;4.30;;;;;;;19.17;50.43;99217.09;239047;180;137168;-61
2024/04/06 18:41:38;;;;;;;12.40;4.10;;;;;;;18.97;51.23;99220.39;239054;172;137502;-58
2024/04/06 18:46:41;;;;;;;11.00;4.60;;;;;;;18.77;52.12;99213.31;239108;180;153188;-58
2024/04/06 18:51:44;;;;;;;19.60;6.00;;;;;;;18.60;52.38;99219.00;239015;180;138611;-59
2024/04/06 18:56:47;;;;;;;13.90;5.60;;;;;;;18.43;52.92;99224.52;239152;180;138435;-58
2024/04/06 19:01:50;;;;;;;15.80;5.90;;;;;;;18.30;53.59;99236.27;239034;180;152986;-60
2024/04/06 19:06:54;;;;;;;14.30;6.00;;;;;;;18.19;54.16;99242.98;239118;180;137877;-59
2024/04/06 19:11:57;;;;;;;14.60;6.50;;;;;;;18.04;54.49;99244.90;239150;180;137865;-58
2024/04/06 19:17:00;;;;;;;14.30;6.90;;;;;;;17.91;54.83;99246.46;239106;180;152855;-57
2024/04/06 19:22:03;;;;;;;18.40;8.70;;;;;;;17.81;55.12;99254.48;239019;180;137851;-57
2024/04/06 19:27:07;;;;;;;16.10;7.10;;;;;;;17.69;55.31;99254.62;239043;180;137854;-57
2024/04/06 19:32:12;;;;;;;14.90;7.20;;;;;;;17.58;56.15;99256.33;239064;180;153196;-57
2024/04/06 19:37:15;;;;;;;17.30;9.30;;;;;;;17.50;56.40;99258.11;239214;180;140835;-58
2024/04/06 19:42:18;;;;;;;21.40;12.20;;;;;;;17.43;56.61;99258.33;239069;179;139411;-57
2024/04/06 19:47:21;;;;;;;22.10;12.20;;;;;;;17.38;57.10;99267.41;239003;180;153597;-58
2024/04/06 19:52:24;;;;;;;25.50;11.30;;;;;;;17.30;57.21;99261.08;239077;180;138372;-59
2024/04/06 19:57:27;;;;;;;19.60;11.00;;;;;;;17.20;57.56;99259.07;239113;180;138131;-60
2024/04/06 20:02:30;;;;;;;20.90;11.80;;;;;;;17.10;58.12;99261.19;239130;180;153733;-60
2024/04/06 20:07:33;;;;;;;21.20;11.70;;;;;;;17.02;58.61;99267.41;238976;177;137538;-59
2024/04/06 20:12:36;;;;;;;23.50;12.10;;;;;;;16.95;59.03;99279.13;239067;180;137358;-60
2024/04/06 20:17:40;;;;;;;28.30;11.80;;;;;;;16.85;59.27;99284.83;239154;180;153145;-60
2024/04/06 20:28:05;;;;;;;26.30;13.10;;;;;;;16.62;59.83;99295.11;239143;180;140030;-60
2024/04/06 20:33:08;;;;;;;31.50;13.50;;;;;;;16.54;60.10;99303.98;239063;180;152922;-60
2024/04/06 20:38:11;;;;;;;19.70;12.40;;;;;;;16.42;60.43;99304.81;239104;180;138852;-60
2024/04/06 20:43:14;;;;;;;24.60;13.40;;;;;;;16.30;60.84;99307.02;239114;180;138269;-58
2024/04/06 20:48:18;;;;;;;23.10;12.80;;;;;;;16.22;60.94;99310.96;239113;180;153204;-57
2024/04/06 20:53:21;;;;;;;24.60;12.90;;;;;;;16.12;61.14;99324.45;239184;180;138093;-60
2024/04/06 20:58:24;;;;;;;25.60;13.10;;;;;;;16.02;61.31;99325.77;239118;180;138506;-61
2024/04/06 21:03:29;;;;;;;23.80;12.30;;;;;;;15.94;61.70;99319.30;239109;180;153818;-59
2024/04/06 21:08:33;;;;;;;30.80;13.90;;;;;;;15.88;62.00;99313.15;239076;180;137044;-58
2024/04/06 21:13:36;;;;;;;24.40;14.00;;;;;;;15.77;62.40;99305.45;239136;180;138129;-60
2024/04/06 21:18:39;;;;;;;30.10;14.90;;;;;;;15.69;62.51;99304.79;239056;177;152958;-59
2024/04/06 21:23:42;;;;;;;27.80;15.60;;;;;;;15.62;62.69;99305.10;239074;180;138248;-58
2024/04/06 21:28:45;;;;;;;24.80;16.10;;;;;;;15.52;62.79;99294.98;239108;180;137727;-58
2024/04/06 21:33:47;;;;;;;28.80;16.70;;;;;;;15.43;63.03;99290.16;239081;180;153853;-60
2024/04/06 21:38:50;;;;;;;27.50;15.00;;;;;;;15.38;63.29;99290.02;239121;177;138169;-60
2024/04/06 21:43:53;;;;;;;25.80;15.10;;;;;;;15.37;63.40;99296.73;239133;173;137598;-62
2024/04/06 21:48:57;;;;;;;27.20;16.20;;;;;;;15.41;63.38;99290.17;239161;180;153389;-62
2024/04/06 21:54:00;;;;;;;30.40;16.90;;;;;;;15.42;63.51;99285.98;239060;180;137017;-59
2024/04/06 21:59:03;;;;;;;28.90;16.10;;;;;;;15.40;63.40;99290.23;239118;178;138613;-60
2024/04/06 22:04:06;;;;;;;29.30;16.80;;;;;;;15.38;63.48;99294.48;239020;180;153007;-59
2024/04/06 22:09:09;;;;;;;29.40;17.00;;;;;;;15.35;63.71;99298.50;239030;180;138653;-60
2024/04/06 22:14:13;;;;;;;27.80;17.70;;;;;;;15.27;63.95;99300.15;239084;180;138322;-60
2024/04/06 22:19:16;;;;;;;27.60;17.90;;;;;;;15.19;64.20;99304.34;239101;180;153682;-60
2024/04/06 22:24:22;;;;;;;29.70;18.70;;;;;;;15.11;64.48;99312.86;239095;180;138520;-60
2024/04/06 22:29:24;;;;;;;31.30;18.10;;;;;;;15.06;64.70;99313.40;239100;180;138544;-59
2024/04/06 22:34:27;;;;;;;30.50;17.90;;;;;;;15.00;64.99;99319.03;239074;180;154499;-58
2024/04/06 22:39:30;;;;;;;29.10;17.80;;;;;;;14.95;65.42;99321.98;239013;180;138782;-60
2024/04/06 22:44:33;;;;;;;27.60;17.40;;;;;;;14.89;65.59;99322.52;239103;180;138606;-59
2024/04/06 22:49:36;;;;;;;28.00;17.40;;;;;;;14.85;65.67;99321.74;239109;180;153646;-59
2024/04/06 22:54:39;;;;;;;31.10;16.00;;;;;;;14.78;65.89;99324.05;239131;180;137607;-59
2024/04/06 22:59:44;;;;;;;28.50;16.30;;;;;;;14.74;66.15;99333.36;239173;180;138540;-59
2024/04/06 23:04:47;;;;;;;27.50;16.30;;;;;;;14.75;66.32;99342.73;239094;180;153040;-58
2024/04/06 23:09:50;;;;;;;29.50;16.70;;;;;;;14.76;66.36;99341.73;239128;180;138248;-59
2024/04/06 23:14:53;;;;;;;27.50;16.90;;;;;;;14.77;66.44;99346.98;239167;180;137164;-59
2024/04/06 23:19:56;;;;;;;28.20;16.00;;;;;;;14.74;66.36;99353.30;239129;180;153026;-60
2024/04/06 23:24:58;;;;;;;28.70;16.90;;;;;;;14.71;66.35;99353.05;239065;180;138408;-59
2024/04/06 23:30:02;;;;;;;27.10;17.00;;;;;;;14.62;66.37;99349.55;239106;180;138800;-59
2024/04/06 23:35:06;;;;;;;27.30;17.10;;;;;;;14.56;66.35;99345.23;239081;179;155034;-60